Time;durP1;ratioP1;P1;durP2;ratioP2;P2;SDS_P1;SDS_P2;PMS_P1;PMS_P2;Temp;Humidity;BMP_temperature;BMP_pressure;BME280_temperature;BME280_humidity;BME280_pressure;Samples;Min_cycle;Max_cycle;Signal;HPM_P1;HPM_P2
2023/05/27 00:02:16;;;;;;;17.00;6.10;;;8.40;99.90;;;;;;5045295;28;20434;-79
2023/05/27 00:04:42;;;;;;;15.65;6.75;;;8.40;99.90;;;;;;5044562;28;20503;-80
2023/05/27 00:07:07;;;;;;;17.25;6.82;;;8.20;99.90;;;;;;5046906;28;20939;-80
2023/05/27 00:09:33;;;;;;;21.80;7.80;;;8.10;99.90;;;;;;5043869;28;20426;-79
2023/05/27 00:11:59;;;;;;;14.63;7.00;;;8.00;99.90;;;;;;5043937;28;21054;-81
2023/05/27 00:14:25;;;;;;;13.80;6.43;;;8.10;99.90;;;;;;5045352;28;20421;-78
2023/05/27 00:16:51;;;;;;;12.52;5.55;;;8.00;99.90;;;;;;5045124;28;20459;-82
2023/05/27 00:19:17;;;;;;;18.27;6.43;;;7.80;99.90;;;;;;5047475;28;20456;-78
2023/05/27 00:21:43;;;;;;;14.13;5.78;;;8.00;99.90;;;;;;5049233;28;20419;-78
2023/05/27 00:24:10;;;;;;;21.33;6.65;;;8.20;99.90;;;;;;5043956;28;20428;-76
2023/05/27 00:26:35;;;;;;;12.82;5.32;;;8.20;99.90;;;;;;5031344;28;20459;-79
2023/05/27 00:29:01;;;;;;;13.83;5.43;;;7.70;99.90;;;;;;5048203;28;20827;-78
2023/05/27 00:31:27;;;;;;;15.00;5.13;;;7.90;99.90;;;;;;5048234;28;20429;-79
2023/05/27 00:33:53;;;;;;;12.37;5.27;;;8.20;99.90;;;;;;5049059;28;20425;-79
2023/05/27 00:36:18;;;;;;;16.17;5.20;;;8.20;99.90;;;;;;5047915;28;20838;-82
2023/05/27 00:38:44;;;;;;;17.23;5.87;;;8.20;99.90;;;;;;5047119;28;20915;-78
2023/05/27 00:41:12;;;;;;;16.45;6.20;;;8.10;99.90;;;;;;5048136;28;20417;-79
2023/05/27 00:43:38;;;;;;;15.32;5.80;;;8.10;99.90;;;;;;5029784;28;20468;-78
2023/05/27 00:46:04;;;;;;;12.32;5.28;;;8.20;99.90;;;;;;5047739;28;20464;-77
2023/05/27 00:48:30;;;;;;;19.10;7.53;;;8.00;99.90;;;;;;5048894;28;20524;-79
2023/05/27 00:50:56;;;;;;;16.63;6.13;;;8.10;99.90;;;;;;5047873;28;20417;-80
2023/05/27 00:53:23;;;;;;;17.85;6.50;;;8.20;99.90;;;;;;5046901;28;20433;-77
2023/05/27 00:55:53;;;;;;;15.32;6.45;;;8.30;99.90;;;;;;5030213;28;20426;-79
2023/05/27 00:58:21;;;;;;;21.33;7.55;;;8.20;99.90;;;;;;5046574;28;20453;-79
2023/05/27 01:00:48;;;;;;;15.80;6.88;;;8.20;99.90;;;;;;5046859;28;20938;-76
2023/05/27 01:03:15;;;;;;;17.85;6.80;;;8.10;99.90;;;;;;5046878;28;20416;-81
2023/05/27 01:05:41;;;;;;;19.17;7.30;;;8.10;99.90;;;;;;5048820;28;21130;-79
2023/05/27 01:08:16;;;;;;;17.17;5.88;;;8.20;99.90;;;;;;5047187;28;20440;-77
2023/05/27 01:10:53;;;;;;;17.67;6.90;;;8.20;99.90;;;;;;5061341;28;20520;-77
2023/05/27 01:13:39;;;;;;;14.43;6.72;;;8.10;99.90;;;;;;5047054;28;20417;-77
2023/05/27 01:16:10;;;;;;;19.17;7.78;;;7.90;99.90;;;;;;5042035;28;20490;-79
2023/05/27 01:18:37;;;;;;;16.63;6.15;;;7.90;99.90;;;;;;5043514;28;20467;-78
2023/05/27 01:21:07;;;;;;;13.52;5.68;;;7.50;99.90;;;;;;5046860;28;20433;-80
2023/05/27 01:23:33;;;;;;;12.65;6.07;;;7.50;99.90;;;;;;5044951;28;20413;-78
2023/05/27 01:25:59;;;;;;;12.98;5.82;;;7.60;99.90;;;;;;5047709;28;20425;-78
2023/05/27 01:28:25;;;;;;;20.85;7.38;;;7.50;99.90;;;;;;5045364;28;20441;-79
2023/05/27 01:30:56;;;;;;;18.02;7.28;;;7.50;99.90;;;;;;5046864;28;20436;-77
2023/05/27 01:33:25;;;;;;;17.40;6.30;;;7.60;99.90;;;;;;5040473;28;20483;-77
2023/05/27 01:36:01;;;;;;;15.45;7.18;;;7.50;99.90;;;;;;5048591;28;20409;-78
2023/05/27 01:38:30;;;;;;;20.92;7.78;;;7.70;99.90;;;;;;5048239;28;20429;-79
2023/05/27 01:40:58;;;;;;;13.95;5.32;;;7.40;99.90;;;;;;5046813;28;20455;-78
2023/05/27 01:43:24;;;;;;;18.13;7.15;;;7.30;99.90;;;;;;5047829;28;20424;-78
2023/05/27 01:45:49;;;;;;;16.60;6.00;;;7.20;99.90;;;;;;5048123;28;20420;-80
2023/05/27 01:48:16;;;;;;;17.27;6.65;;;7.20;99.90;;;;;;5047045;28;20507;-79
2023/05/27 01:50:41;;;;;;;22.48;6.68;;;7.30;99.90;;;;;;5045978;28;20413;-76
2023/05/27 01:53:07;;;;;;;17.97;5.83;;;7.20;99.90;;;;;;5044459;28;20592;-80
2023/05/27 01:55:33;;;;;;;17.80;6.95;;;7.20;99.90;;;;;;5042415;28;20811;-80
2023/05/27 01:57:58;;;;;;;17.03;6.63;;;7.00;99.90;;;;;;5048403;28;20826;-78
2023/05/27 02:00:24;;;;;;;14.23;6.53;;;7.10;99.90;;;;;;5043304;28;20434;-81
2023/05/27 02:02:50;;;;;;;14.77;5.70;;;7.10;99.90;;;;;;5043098;28;20830;-78
2023/05/27 02:05:16;;;;;;;19.27;6.77;;;7.00;99.90;;;;;;5047052;28;20452;-79
2023/05/27 02:07:42;;;;;;;16.53;6.53;;;7.10;99.90;;;;;;5048424;28;20757;-79
2023/05/27 02:10:08;;;;;;;17.58;6.82;;;7.30;99.90;;;;;;5046593;28;20429;-77
2023/05/27 02:12:34;;;;;;;16.48;5.75;;;7.50;99.90;;;;;;5044164;28;20442;-81
2023/05/27 02:14:59;;;;;;;15.13;5.75;;;7.60;99.90;;;;;;5043705;28;20444;-80
2023/05/27 02:17:27;;;;;;;17.17;6.05;;;7.60;99.90;;;;;;5048656;28;20436;-80
2023/05/27 02:19:52;;;;;;;21.73;6.50;;;7.60;99.90;;;;;;5045466;28;20447;-82
2023/05/27 02:22:18;;;;;;;13.13;5.95;;;7.50;99.90;;;;;;5047000;28;20441;-81
2023/05/27 02:24:44;;;;;;;15.90;7.07;;;7.60;99.90;;;;;;5027088;28;20429;-79
2023/05/27 02:27:10;;;;;;;11.70;5.67;;;7.60;99.90;;;;;;5046946;28;20540;-81
2023/05/27 02:29:36;;;;;;;18.35;6.85;;;7.20;99.90;;;;;;5046257;28;20479;-80
2023/05/27 02:32:01;;;;;;;17.35;6.05;;;7.00;99.90;;;;;;5047566;28;20810;-75
2023/05/27 02:34:27;;;;;;;15.75;5.47;;;6.90;99.90;;;;;;5035576;28;20429;-80
2023/05/27 02:36:52;;;;;;;19.77;7.00;;;7.00;99.90;;;;;;5047639;28;20451;-78
2023/05/27 02:39:18;;;;;;;20.00;6.97;;;6.80;99.90;;;;;;5046693;28;20962;-76
2023/05/27 02:41:44;;;;;;;15.50;6.60;;;6.90;99.90;;;;;;5044571;28;20482;-82
2023/05/27 02:44:09;;;;;;;21.00;7.22;;;7.00;99.90;;;;;;5044456;28;20784;-77
2023/05/27 02:46:35;;;;;;;20.53;7.07;;;7.00;99.90;;;;;;5045237;28;20459;-79
2023/05/27 02:49:01;;;;;;;20.80;7.37;;;7.00;99.90;;;;;;5044916;28;20425;-74
2023/05/27 02:51:28;;;;;;;18.37;6.77;;;6.90;99.90;;;;;;5034898;28;20423;-79
2023/05/27 02:53:54;;;;;;;17.20;6.85;;;7.10;99.90;;;;;;5046218;28;20426;-79
2023/05/27 02:56:21;;;;;;;21.95;7.55;;;7.10;99.90;;;;;;5049633;28;20432;-80
2023/05/27 02:58:46;;;;;;;19.33;7.15;;;7.30;99.90;;;;;;5049099;28;20437;-80
2023/05/27 03:01:12;;;;;;;16.83;5.93;;;7.40;99.90;;;;;;5048248;28;20466;-80
2023/05/27 03:03:38;;;;;;;16.08;6.90;;;7.40;99.90;;;;;;5041179;28;20435;-77
2023/05/27 03:06:03;;;;;;;15.90;6.22;;;7.60;99.90;;;;;;5049179;28;20943;-80
2023/05/27 03:08:29;;;;;;;17.73;7.03;;;7.60;99.90;;;;;;5052901;28;20436;-78
2023/05/27 03:10:55;;;;;;;22.40;7.40;;;7.50;99.90;;;;;;5051820;28;20448;-79
2023/05/27 03:13:21;;;;;;;15.70;5.22;;;7.40;99.90;;;;;;5050440;28;20850;-79
2023/05/27 03:15:47;;;;;;;16.60;6.53;;;7.60;99.90;;;;;;5041381;28;20500;-78
2023/05/27 03:18:12;;;;;;;18.75;6.80;;;7.50;99.90;;;;;;5044546;28;20425;-80
2023/05/27 03:20:38;;;;;;;13.90;5.55;;;7.20;99.90;;;;;;5045526;28;20504;-81
2023/05/27 03:23:03;;;;;;;20.70;7.20;;;7.30;99.90;;;;;;5048061;28;20522;-80
2023/05/27 03:25:29;;;;;;;15.95;5.68;;;7.40;99.90;;;;;;5046081;28;20926;-78
2023/05/27 03:27:55;;;;;;;20.27;6.68;;;7.60;99.90;;;;;;5045961;28;20429;-79
2023/05/27 03:30:20;;;;;;;20.85;6.55;;;7.70;99.90;;;;;;5046510;28;20543;-79
2023/05/27 03:32:46;;;;;;;14.43;5.50;;;7.80;99.90;;;;;;5047272;28;20459;-79
2023/05/27 03:35:12;;;;;;;17.80;6.07;;;7.70;99.90;;;;;;5045614;28;20413;-78
2023/05/27 03:37:38;;;;;;;21.70;6.70;;;7.60;99.90;;;;;;5045453;28;20430;-80
2023/05/27 03:40:04;;;;;;;16.13;5.90;;;7.50;99.90;;;;;;5043599;28;20489;-78
2023/05/27 03:42:29;;;;;;;18.33;5.70;;;7.40;99.90;;;;;;5045987;28;20440;-78
2023/05/27 03:44:55;;;;;;;14.80;5.90;;;7.60;99.90;;;;;;5045961;28;20865;-78
2023/05/27 03:47:21;;;;;;;20.25;6.68;;;7.60;99.90;;;;;;5044288;28;20913;-81
2023/05/27 03:49:48;;;;;;;16.63;5.90;;;7.50;99.90;;;;;;5045136;28;20425;-81
2023/05/27 03:52:14;;;;;;;17.45;6.68;;;7.70;99.90;;;;;;5049442;28;20904;-81
2023/05/27 03:54:41;;;;;;;22.55;7.50;;;7.70;99.90;;;;;;5050804;28;20429;-79
2023/05/27 03:57:07;;;;;;;16.55;6.40;;;7.50;99.90;;;;;;5050462;28;20424;-80
2023/05/27 03:59:33;;;;;;;21.00;7.28;;;7.50;99.90;;;;;;5051250;28;20429;-79
2023/05/27 04:01:59;;;;;;;15.75;6.25;;;7.70;99.90;;;;;;5050906;28;20409;-79
2023/05/27 04:04:25;;;;;;;21.10;7.00;;;7.90;99.90;;;;;;5051589;28;20458;-78
2023/05/27 04:06:50;;;;;;;20.80;7.17;;;8.10;99.90;;;;;;5052843;28;20440;-80
2023/05/27 04:09:16;;;;;;;16.80;5.73;;;7.90;99.90;;;;;;5051058;28;20524;-79
2023/05/27 04:11:42;;;;;;;13.10;5.60;;;8.10;99.90;;;;;;5050561;28;20413;-81
2023/05/27 04:14:07;;;;;;;17.83;7.57;;;8.00;99.90;;;;;;5052375;28;20481;-75
2023/05/27 04:16:33;;;;;;;17.17;5.60;;;8.10;99.90;;;;;;5049928;28;20436;-79
2023/05/27 04:19:00;;;;;;;17.05;6.72;;;8.10;99.90;;;;;;5050814;28;20516;-81
2023/05/27 04:21:26;;;;;;;14.57;5.63;;;8.20;99.90;;;;;;5050064;28;20795;-80
2023/05/27 04:23:52;;;;;;;17.45;6.28;;;8.30;99.90;;;;;;5053520;28;20846;-75
2023/05/27 04:26:18;;;;;;;17.95;6.47;;;8.20;99.90;;;;;;5049212;28;20425;-79
2023/05/27 04:28:45;;;;;;;16.40;5.82;;;8.20;99.90;;;;;;5047264;28;20437;-81
2023/05/27 04:31:12;;;;;;;21.42;6.72;;;8.20;99.90;;;;;;5048004;28;21220;-78
2023/05/27 04:33:41;;;;;;;18.13;6.53;;;8.40;99.90;;;;;;5055929;28;20428;-78
2023/05/27 04:36:07;;;;;;;21.85;6.25;;;8.50;99.90;;;;;;5056981;28;20558;-80
2023/05/27 04:38:33;;;;;;;18.30;5.28;;;8.40;99.90;;;;;;5057045;28;20413;-77
2023/05/27 04:41:00;;;;;;;14.05;5.88;;;8.40;99.90;;;;;;5055229;28;20486;-81
2023/05/27 04:43:29;;;;;;;18.70;5.78;;;8.50;99.90;;;;;;5050344;28;20962;-79
2023/05/27 04:46:04;;;;;;;19.90;5.55;;;8.60;99.90;;;;;;5051207;28;20429;-80
2023/05/27 04:48:30;;;;;;;17.98;5.20;;;8.70;99.90;;;;;;5052564;28;20494;-81
2023/05/27 04:50:57;;;;;;;20.10;6.88;;;8.60;99.90;;;;;;5051201;28;20417;-80
2023/05/27 04:53:23;;;;;;;18.50;5.90;;;8.70;99.90;;;;;;5050856;28;21293;-77
2023/05/27 04:55:49;;;;;;;21.10;6.88;;;8.80;99.90;;;;;;5042359;28;20417;-80
2023/05/27 04:58:14;;;;;;;19.07;6.13;;;8.80;99.90;;;;;;5035259;28;20950;-81
2023/05/27 05:00:49;;;;;;;16.37;5.93;;;8.80;99.90;;;;;;5052902;28;20498;-80
2023/05/27 05:03:36;;;;;;;18.80;5.70;;;9.10;99.90;;;;;;5049583;28;20513;-82
2023/05/27 05:06:03;;;;;;;14.70;5.50;;;9.10;99.90;;;;;;5039216;28;20429;-79
2023/05/27 05:08:29;;;;;;;16.70;5.35;;;9.10;99.90;;;;;;5050456;28;20429;-78
2023/05/27 05:10:55;;;;;;;18.30;6.13;;;9.20;99.90;;;;;;5050218;28;20432;-81
2023/05/27 05:13:20;;;;;;;17.08;5.78;;;9.30;99.90;;;;;;5049912;28;20417;-82
2023/05/27 05:15:47;;;;;;;21.15;6.25;;;9.60;99.90;;;;;;5044814;28;20431;-78
2023/05/27 05:18:13;;;;;;;24.85;6.72;;;9.60;99.90;;;;;;5047604;28;20488;-77
2023/05/27 05:20:39;;;;;;;22.00;6.90;;;9.60;99.90;;;;;;5046027;28;20429;-78
2023/05/27 05:23:06;;;;;;;18.00;6.30;;;9.50;99.90;;;;;;5049216;28;20788;-78
2023/05/27 05:25:37;;;;;;;16.23;5.68;;;9.70;99.90;;;;;;5043553;28;20421;-79
2023/05/27 05:28:04;;;;;;;16.20;6.47;;;9.70;99.90;;;;;;5048310;28;20517;-79
2023/05/27 05:30:31;;;;;;;19.35;6.47;;;9.90;99.90;;;;;;5047285;28;20429;-77
2023/05/27 05:32:57;;;;;;;19.60;6.38;;;9.80;99.90;;;;;;5049663;28;20426;-80
2023/05/27 05:35:23;;;;;;;18.63;6.50;;;10.00;99.90;;;;;;5047459;28;20978;-80
2023/05/27 05:37:49;;;;;;;16.87;5.77;;;10.00;99.90;;;;;;5047628;28;20439;-79
2023/05/27 05:40:15;;;;;;;19.67;5.30;;;10.00;99.90;;;;;;5049939;28;20474;-78
2023/05/27 05:42:40;;;;;;;18.07;5.37;;;10.30;99.90;;;;;;5048355;28;20464;-81
2023/05/27 05:45:07;;;;;;;17.00;4.77;;;10.30;99.90;;;;;;5047817;28;20460;-79
2023/05/27 05:47:33;;;;;;;20.08;6.50;;;10.40;99.90;;;;;;5047696;28;20421;-78
2023/05/27 05:49:58;;;;;;;18.23;6.60;;;10.30;99.90;;;;;;5047209;28;20436;-79
2023/05/27 05:52:24;;;;;;;18.27;5.35;;;10.30;99.90;;;;;;5029141;28;20516;-80
2023/05/27 05:54:50;;;;;;;16.13;5.43;;;10.10;99.90;;;;;;5045382;28;22095;-80
2023/05/27 05:57:15;;;;;;;21.10;5.75;;;10.50;99.90;;;;;;5047051;28;20549;-80
2023/05/27 05:59:41;;;;;;;15.52;4.97;;;10.40;99.90;;;;;;5045027;28;20753;-79
2023/05/27 06:02:07;;;;;;;18.65;5.70;;;10.70;99.90;;;;;;5046300;28;20829;-77
2023/05/27 06:04:32;;;;;;;16.20;5.37;;;10.80;99.90;;;;;;5044906;28;20430;-80
2023/05/27 06:06:59;;;;;;;19.00;5.47;;;10.70;99.90;;;;;;5047343;28;20445;-76
2023/05/27 06:09:25;;;;;;;17.73;5.85;;;10.80;99.90;;;;;;5042772;28;20840;-75
2023/05/27 06:11:51;;;;;;;12.43;4.35;;;10.70;99.90;;;;;;5037014;28;20419;-74
2023/05/27 06:14:19;;;;;;;16.63;4.30;;;10.90;99.90;;;;;;5044197;28;21515;-75
2023/05/27 06:16:45;;;;;;;19.20;4.82;;;10.70;99.90;;;;;;5047922;28;20475;-77
2023/05/27 06:19:10;;;;;;;18.10;6.78;;;10.90;99.90;;;;;;5047097;28;20425;-77
2023/05/27 06:21:36;;;;;;;18.70;5.37;;;11.10;99.90;;;;;;5042416;28;20421;-75
2023/05/27 06:24:02;;;;;;;19.33;4.90;;;11.00;99.90;;;;;;5039857;28;20514;-75
2023/05/27 06:26:28;;;;;;;17.57;4.83;;;11.30;99.90;;;;;;5043874;28;20421;-77
2023/05/27 06:28:56;;;;;;;14.07;5.00;;;11.20;99.90;;;;;;5043571;28;20747;-75
2023/05/27 06:31:22;;;;;;;18.65;4.78;;;11.20;99.90;;;;;;5046788;28;20497;-77
2023/05/27 06:33:48;;;;;;;20.55;5.07;;;11.60;99.90;;;;;;5047531;28;20501;-76
2023/05/27 06:36:13;;;;;;;20.88;4.72;;;11.30;99.90;;;;;;5047428;28;20421;-76
2023/05/27 06:38:39;;;;;;;24.67;6.40;;;11.30;99.90;;;;;;5038618;28;20506;-75
2023/05/27 06:41:04;;;;;;;19.70;5.20;;;11.50;99.90;;;;;;5033520;28;20771;-75
2023/05/27 06:43:30;;;;;;;15.87;4.63;;;11.80;99.90;;;;;;5046246;28;20425;-75
2023/05/27 06:45:56;;;;;;;20.40;5.68;;;11.80;99.90;;;;;;5045974;28;20791;-75
2023/05/27 06:48:21;;;;;;;19.60;6.25;;;11.80;99.90;;;;;;5046203;28;20482;-76
2023/05/27 06:50:47;;;;;;;19.93;5.30;;;11.70;99.90;;;;;;5047236;28;20433;-76
2023/05/27 06:53:13;;;;;;;15.97;4.70;;;11.80;99.90;;;;;;5047798;28;20463;-78
2023/05/27 06:55:39;;;;;;;15.30;4.95;;;11.90;99.90;;;;;;5045102;28;20417;-74
2023/05/27 06:58:06;;;;;;;15.50;4.65;;;12.10;99.90;;;;;;5045794;28;20437;-76
2023/05/27 07:00:31;;;;;;;15.10;4.88;;;13.00;99.90;;;;;;5045632;28;20433;-75
2023/05/27 07:02:57;;;;;;;19.20;4.93;;;12.00;99.90;;;;;;5046589;28;20475;-76
2023/05/27 07:05:23;;;;;;;15.93;5.40;;;13.40;99.90;;;;;;5045810;28;20408;-76
2023/05/27 07:07:49;;;;;;;18.70;5.77;;;14.70;99.90;;;;;;5027185;28;20821;-73
2023/05/27 07:10:15;;;;;;;21.42;6.93;;;14.80;99.90;;;;;;5026343;28;20533;-75
2023/05/27 07:12:40;;;;;;;17.77;5.03;;;14.00;99.90;;;;;;5043991;28;20521;-73
2023/05/27 07:15:06;;;;;;;14.68;6.00;;;14.90;99.90;;;;;;5045392;28;20513;-76
2023/05/27 07:17:32;;;;;;;15.10;5.57;;;14.50;99.90;;;;;;5045295;28;20440;-77
2023/05/27 07:19:58;;;;;;;18.03;4.47;;;14.80;99.90;;;;;;5029816;28;20415;-75
2023/05/27 07:22:25;;;;;;;15.13;4.90;;;14.90;99.90;;;;;;5034180;28;20726;-76
2023/05/27 07:24:50;;;;;;;18.60;5.18;;;14.30;99.90;;;;;;5042689;28;20425;-76
2023/05/27 07:27:16;;;;;;;15.20;4.47;;;13.90;99.90;;;;;;5045622;28;20794;-77
2023/05/27 07:29:42;;;;;;;20.77;5.97;;;14.40;99.90;;;;;;5045697;28;20426;-77
2023/05/27 07:32:07;;;;;;;14.93;4.77;;;14.10;99.90;;;;;;5047098;28;20542;-76
2023/05/27 07:34:33;;;;;;;19.35;5.35;;;13.30;99.90;;;;;;5041011;28;20430;-76
2023/05/27 07:36:59;;;;;;;16.45;5.53;;;15.20;99.90;;;;;;5027267;28;20407;-75
2023/05/27 07:39:24;;;;;;;15.90;4.77;;;16.00;99.90;;;;;;5058792;28;20436;-75
2023/05/27 07:41:50;;;;;;;18.80;5.77;;;15.00;99.90;;;;;;5045226;28;20473;-76
2023/05/27 07:44:16;;;;;;;12.20;4.38;;;14.60;99.90;;;;;;5045518;28;20429;-77
2023/05/27 07:46:41;;;;;;;15.25;4.78;;;14.20;99.90;;;;;;5045074;28;20418;-77
2023/05/27 07:49:07;;;;;;;17.10;5.03;;;14.00;99.90;;;;;;5028049;28;20979;-75
2023/05/27 07:51:33;;;;;;;17.27;4.80;;;14.00;99.90;;;;;;5046299;28;20409;-75
2023/05/27 07:53:58;;;;;;;19.70;5.87;;;14.20;99.90;;;;;;5045844;28;20429;-76
2023/05/27 07:56:24;;;;;;;14.45;4.57;;;14.00;99.90;;;;;;5028700;28;20959;-75
2023/05/27 07:58:50;;;;;;;17.13;5.13;;;14.40;99.90;;;;;;5045770;28;20976;-76
2023/05/27 08:01:15;;;;;;;18.10;5.13;;;14.00;99.90;;;;;;5045578;28;20417;-75
2023/05/27 08:03:41;;;;;;;17.40;4.53;;;14.20;99.90;;;;;;5045659;28;20429;-76
2023/05/27 08:06:07;;;;;;;18.90;4.85;;;14.40;99.90;;;;;;5042926;28;20485;-76
2023/05/27 08:08:32;;;;;;;13.05;5.05;;;14.40;99.90;;;;;;5044831;28;20441;-79
2023/05/27 08:10:58;;;;;;;16.48;5.80;;;14.50;99.90;;;;;;5045501;28;20745;-76
2023/05/27 08:13:24;;;;;;;16.47;5.67;;;13.80;99.90;;;;;;5043903;28;20782;-76
2023/05/27 08:15:49;;;;;;;16.73;5.17;;;14.10;99.90;;;;;;5044072;28;20578;-77
2023/05/27 08:18:15;;;;;;;16.90;5.47;;;14.10;99.90;;;;;;5039847;28;20470;-74
2023/05/27 08:20:41;;;;;;;14.82;5.00;;;14.50;99.90;;;;;;5043050;28;20432;-78
2023/05/27 08:23:06;;;;;;;21.23;6.47;;;14.90;99.90;;;;;;5044181;28;20792;-77
2023/05/27 08:25:35;;;;;;;18.03;5.63;;;15.10;99.90;;;;;;5043046;28;20413;-76
2023/05/27 08:28:01;;;;;;;13.82;4.63;;;14.20;99.90;;;;;;5045893;28;20425;-77
2023/05/27 08:30:30;;;;;;;17.80;5.25;;;14.30;99.90;;;;;;5040912;28;20417;-75
2023/05/27 08:32:57;;;;;;;17.20;5.95;;;14.60;99.90;;;;;;5028527;28;20409;-77
2023/05/27 08:35:22;;;;;;;18.27;5.65;;;15.40;99.90;;;;;;5046359;28;20425;-75
2023/05/27 08:37:48;;;;;;;16.95;4.93;;;14.40;99.90;;;;;;5044486;28;20421;-75
2023/05/27 08:40:16;;;;;;;18.67;5.23;;;14.50;99.90;;;;;;5048403;28;20475;-76
2023/05/27 08:42:42;;;;;;;18.17;5.20;;;15.30;99.90;;;;;;5049453;28;20429;-77
2023/05/27 08:45:09;;;;;;;19.23;6.57;;;15.10;99.90;;;;;;5041523;28;20423;-77
2023/05/27 08:47:35;;;;;;;15.87;6.03;;;15.10;99.90;;;;;;5036498;28;20547;-75
2023/05/27 08:50:01;;;;;;;12.70;4.95;;;14.90;99.90;;;;;;5047194;28;20433;-78
2023/05/27 08:52:28;;;;;;;20.70;6.57;;;15.00;99.90;;;;;;5048659;28;20815;-76
2023/05/27 08:54:56;;;;;;;16.08;5.70;;;15.50;99.90;;;;;;5041958;28;20426;-77
2023/05/27 08:57:25;;;;;;;16.35;5.30;;;15.90;99.90;;;;;;5030894;28;20468;-74
2023/05/27 08:59:51;;;;;;;15.70;5.95;;;16.30;99.90;;;;;;5049278;28;20927;-77
2023/05/27 09:02:20;;;;;;;15.85;5.88;;;15.50;99.90;;;;;;5048733;28;20933;-76
2023/05/27 09:04:46;;;;;;;22.00;6.03;;;15.90;99.90;;;;;;5048893;28;20425;-76
2023/05/27 09:07:12;;;;;;;19.30;6.43;;;16.10;99.90;;;;;;5042395;28;20401;-76
2023/05/27 09:09:39;;;;;;;14.88;5.18;;;15.80;99.90;;;;;;5042774;28;20765;-73
2023/05/27 09:12:05;;;;;;;18.48;6.20;;;15.40;99.90;;;;;;5046434;28;20428;-75
2023/05/27 09:14:32;;;;;;;16.60;5.07;;;15.80;99.90;;;;;;5046772;28;20424;-75
2023/05/27 09:17:04;;;;;;;16.38;6.00;;;16.10;99.90;;;;;;5048421;28;20756;-73
2023/05/27 09:19:30;;;;;;;16.03;5.60;;;16.00;99.90;;;;;;5044776;28;20421;-75
2023/05/27 09:21:56;;;;;;;22.63;6.70;;;15.70;99.90;;;;;;5047797;28;20460;-76
2023/05/27 09:24:25;;;;;;;15.33;5.20;;;15.80;99.90;;;;;;5045688;28;20579;-76
2023/05/27 09:26:52;;;;;;;22.58;7.00;;;16.10;99.90;;;;;;5032913;28;20429;-76
2023/05/27 09:29:24;;;;;;;20.38;6.80;;;15.90;99.90;;;;;;5047240;28;20429;-74
2023/05/27 09:31:55;;;;;;;20.45;6.53;;;16.10;99.90;;;;;;5047857;28;20950;-77
2023/05/27 09:34:21;;;;;;;19.35;5.53;;;16.40;99.90;;;;;;5028734;28;20422;-76
2023/05/27 09:36:49;;;;;;;16.88;5.53;;;16.80;99.90;;;;;;5063267;28;20418;-76
2023/05/27 09:39:17;;;;;;;16.65;6.13;;;16.10;99.90;;;;;;5046226;28;20426;-75
2023/05/27 09:41:43;;;;;;;17.73;5.97;;;16.60;99.90;;;;;;5047612;28;20429;-76
2023/05/27 09:44:09;;;;;;;18.37;6.50;;;16.70;99.90;;;;;;5045903;28;20494;-75
2023/05/27 09:46:36;;;;;;;18.57;6.97;;;17.10;99.90;;;;;;5046994;28;20436;-73
2023/05/27 09:49:05;;;;;;;22.48;6.90;;;16.40;99.90;;;;;;5062023;28;20506;-76
2023/05/27 09:51:32;;;;;;;16.37;6.03;;;16.80;99.90;;;;;;5046094;28;20476;-74
2023/05/27 09:53:58;;;;;;;14.68;5.38;;;16.80;99.90;;;;;;5046802;28;20508;-76
2023/05/27 09:56:29;;;;;;;22.10;6.20;;;16.40;99.90;;;;;;5026419;28;20419;-76
2023/05/27 09:58:58;;;;;;;14.98;6.30;;;16.10;99.90;;;;;;5042204;28;20421;-75
2023/05/27 10:01:29;;;;;;;20.67;6.05;;;16.10;99.90;;;;;;5047513;28;20409;-75
2023/05/27 10:03:58;;;;;;;16.08;5.72;;;16.40;99.90;;;;;;5044849;28;20810;-77
2023/05/27 10:06:26;;;;;;;15.68;6.15;;;16.10;99.90;;;;;;5045017;28;20425;-77
2023/05/27 10:08:52;;;;;;;16.92;6.22;;;16.60;99.90;;;;;;5045486;28;20426;-77
2023/05/27 10:11:18;;;;;;;17.90;5.80;;;16.90;99.90;;;;;;5047665;28;20492;-76
2023/05/27 10:13:45;;;;;;;21.33;7.22;;;16.30;99.90;;;;;;5047644;28;20986;-76
2023/05/27 10:16:22;;;;;;;21.03;7.53;;;17.10;99.90;;;;;;5042577;28;20482;-75
2023/05/27 10:18:52;;;;;;;13.65;5.45;;;16.60;99.90;;;;;;5034622;28;20747;-74
2023/05/27 10:21:23;;;;;;;15.05;5.57;;;16.90;99.90;;;;;;5027640;28;20406;-76
2023/05/27 10:24:04;;;;;;;19.80;6.57;;;17.10;99.90;;;;;;5045318;28;20426;-74
2023/05/27 10:26:41;;;;;;;19.25;5.32;;;17.50;99.90;;;;;;5030867;28;20422;-76
2023/05/27 10:29:08;;;;;;;15.95;6.47;;;17.20;99.90;;;;;;5043837;28;20441;-75
2023/05/27 10:31:36;;;;;;;17.73;6.10;;;16.70;99.90;;;;;;5047257;28;20406;-75
2023/05/27 10:34:05;;;;;;;17.48;7.05;;;17.20;99.90;;;;;;5046441;28;20855;-76
2023/05/27 10:36:32;;;;;;;22.25;6.90;;;16.90;99.90;;;;;;5031450;28;20537;-75
2023/05/27 10:39:05;;;;;;;13.63;5.93;;;17.10;99.90;;;;;;5040013;28;20476;-74
2023/05/27 10:41:50;;;;;;;15.80;5.70;;;17.30;99.90;;;;;;5044635;28;20421;-76
2023/05/27 10:44:35;;;;;;;16.52;6.28;;;17.30;99.90;;;;;;5046534;28;20421;-75
2023/05/27 10:47:12;;;;;;;16.17;5.95;;;17.40;99.90;;;;;;5040286;28;20418;-75
2023/05/27 10:49:40;;;;;;;17.65;6.20;;;17.60;99.90;;;;;;5038576;28;20468;-76
2023/05/27 10:52:10;;;;;;;18.38;6.38;;;17.50;99.90;;;;;;5046109;28;20408;-77
2023/05/27 10:54:37;;;;;;;16.52;6.63;;;17.90;99.90;;;;;;5045243;28;20470;-76
2023/05/27 10:57:03;;;;;;;17.73;5.75;;;17.60;99.90;;;;;;5043645;28;20422;-75
2023/05/27 10:59:37;;;;;;;14.20;5.47;;;17.70;99.90;;;;;;5045702;28;20433;-76
2023/05/27 11:02:05;;;;;;;20.95;7.47;;;17.70;99.90;;;;;;5044797;28;20995;-76
2023/05/27 11:04:35;;;;;;;19.35;6.80;;;17.30;99.90;;;;;;5044405;28;20944;-74
2023/05/27 11:07:01;;;;;;;16.60;6.10;;;17.60;99.90;;;;;;5042714;28;20410;-75
2023/05/27 11:09:27;;;;;;;18.20;6.70;;;17.50;99.90;;;;;;5042866;28;20971;-76
2023/05/27 11:11:56;;;;;;;16.95;6.60;;;17.70;99.90;;;;;;5046947;28;20405;-75
2023/05/27 11:14:23;;;;;;;17.27;5.13;;;17.70;99.90;;;;;;5046291;28;20470;-77
2023/05/27 11:16:53;;;;;;;16.52;5.90;;;17.90;99.90;;;;;;5029817;28;20406;-75
2023/05/27 11:19:20;;;;;;;18.50;6.25;;;18.40;99.90;;;;;;5043621;28;20866;-76
2023/05/27 11:21:47;;;;;;;16.52;5.60;;;18.00;99.90;;;;;;5046297;28;20410;-77
2023/05/27 11:24:21;;;;;;;17.77;6.22;;;18.00;99.90;;;;;;5044997;28;20459;-78
2023/05/27 11:26:48;;;;;;;15.45;6.13;;;18.40;99.90;;;;;;5042645;28;20436;-76
2023/05/27 11:29:14;;;;;;;17.77;5.80;;;18.50;99.90;;;;;;5043402;28;20425;-77
2023/05/27 11:31:41;;;;;;;14.57;4.82;;;18.00;99.90;;;;;;5044022;28;20577;-74
2023/05/27 11:34:19;;;;;;;12.70;5.55;;;18.40;99.90;;;;;;5023752;28;20570;-72
2023/05/27 11:36:46;;;;;;;15.63;5.65;;;18.40;99.90;;;;;;5041795;28;20409;-74
2023/05/27 11:39:18;;;;;;;16.00;5.80;;;18.50;99.90;;;;;;5043798;28;20478;-73
2023/05/27 11:41:51;;;;;;;14.95;5.10;;;18.20;99.90;;;;;;5045265;28;20425;-73
2023/05/27 11:44:19;;;;;;;15.75;5.32;;;18.30;99.90;;;;;;5040126;28;20501;-73
2023/05/27 11:46:45;;;;;;;13.98;5.30;;;18.40;99.90;;;;;;5043472;28;20425;-73
2023/05/27 11:49:19;;;;;;;13.82;5.25;;;18.10;99.90;;;;;;5045478;28;20438;-74
2023/05/27 11:51:46;;;;;;;14.23;5.68;;;17.80;99.90;;;;;;5043993;28;20425;-75
2023/05/27 11:54:20;;;;;;;17.15;5.75;;;18.50;99.90;;;;;;5041742;28;20440;-75
2023/05/27 11:56:46;;;;;;;13.85;5.20;;;18.90;99.90;;;;;;5043729;28;20413;-74
2023/05/27 11:59:11;;;;;;;16.95;6.00;;;18.80;99.90;;;;;;5043737;28;20436;-74
2023/05/27 12:01:37;;;;;;;16.27;5.25;;;18.70;99.90;;;;;;5044355;28;20939;-75
2023/05/27 12:04:03;;;;;;;18.87;5.90;;;18.90;99.90;;;;;;5044562;28;20440;-74
2023/05/27 12:06:29;;;;;;;13.03;5.30;;;18.90;99.90;;;;;;5042510;28;20429;-75
2023/05/27 12:08:55;;;;;;;17.73;6.87;;;18.80;99.90;;;;;;5042680;28;20447;-74
2023/05/27 12:11:21;;;;;;;22.33;6.30;;;18.80;99.90;;;;;;5044700;28;20499;-76
2023/05/27 12:13:47;;;;;;;17.05;6.15;;;18.60;99.90;;;;;;5046200;28;20444;-75
2023/05/27 12:16:13;;;;;;;15.97;6.63;;;19.20;99.90;;;;;;5045792;28;20413;-76
2023/05/27 12:18:41;;;;;;;15.77;6.33;;;18.50;99.90;;;;;;5047003;28;20891;-76
2023/05/27 12:21:07;;;;;;;15.65;5.88;;;18.80;99.90;;;;;;5046205;28;20500;-75
2023/05/27 12:23:33;;;;;;;12.55;4.60;;;19.30;99.90;;;;;;5044532;28;20448;-75
2023/05/27 12:25:59;;;;;;;17.23;5.70;;;19.40;99.90;;;;;;5047324;28;20796;-75
2023/05/27 12:28:26;;;;;;;13.77;6.45;;;19.00;99.90;;;;;;5046945;28;20458;-75
2023/05/27 12:30:51;;;;;;;14.02;5.43;;;18.90;99.90;;;;;;5048484;28;20420;-75
2023/05/27 12:33:17;;;;;;;14.18;5.35;;;18.60;99.90;;;;;;5048978;28;20422;-74
2023/05/27 12:35:43;;;;;;;16.57;5.90;;;18.90;99.90;;;;;;5048084;28;20818;-75
2023/05/27 12:38:09;;;;;;;13.87;4.93;;;18.70;99.90;;;;;;5049074;28;20432;-74
2023/05/27 12:40:35;;;;;;;15.02;5.90;;;19.00;99.90;;;;;;5047677;28;20443;-74